Latest Weather Observations for Braidwood

IDN60901

Issued at 9:31 pm EST Wednesday 29 July 2015 (issued every 10 minutes, with the page automatically refreshed every 10 minutes)

About weather observations | Map of Canberra area stations | Latest observations for Canberra area | Other Formats
Station Details ID: 069132 Name: BRAIDWOOD RACECOURSE AWS Lat: -35.43 Lon: 149.78 Height: 665.2 m
Data from the previous 72 hours. | See also: Recent months at Braidwood
Date/Time
EST
Tmp

°C
App
Tmp
°C
Dew
Point
°C
Rel
Hum
%
Delta-T

°C
Wind Press
QNH
hPa
Press
MSL
hPa
Rain
since
9 am
mm
Dir
 
Spd
km/h
Gust
km/h
Spd
kts
Gust
kts
29/09:30pm 3.1 0.8 0.2 81 1.1 NNW 2 6 1 3 1028.7 1029.9 0.0
29/09:00pm 3.5 0.8 0.2 79 1.3 NNW 4 6 2 3 1028.9 1030.1 0.0
29/08:30pm 3.9 0.8 0.4 78 1.4 NW 6 6 3 3 1029.4 1030.7 0.0
29/08:00pm 3.4 1.0 -0.2 77 1.4 NNW 2 4 1 2 1029.4 1030.7 0.0
29/07:30pm 5.1 1.9 1.0 75 1.7 NW 7 11 4 6 1029.4 1030.7 0.0
29/07:00pm 3.2 0.0 -0.3 78 1.3 NW 6 7 3 4 1029.2 1030.5 0.0
29/06:30pm 3.1 0.9 -1.3 73 1.7 CALM 0 4 0 2 1029.1 1030.3 0.0
29/06:00pm 4.8 1.7 0.0 71 1.9 NW 6 7 3 4 1029.3 1030.6 0.0
29/05:30pm 5.9 2.7 -0.2 65 2.4 NNW 6 11 3 6 1028.9 1030.1 0.0
29/05:00pm 8.3 4.7 0.5 58 3.2 NW 9 15 5 8 1028.8 1030.0 0.0
29/04:30pm 10.3 6.9 1.7 55 3.8 NW 9 17 5 9 1028.9 1030.1 0.0
29/04:00pm 10.4 6.8 0.7 51 4.1 NW 9 19 5 10 1029.0 1030.2 0.0
29/03:30pm 11.7 7.8 1.1 48 4.6 NW 11 22 6 12 1029.0 1030.2 0.0
29/03:00pm 12.0 7.7 1.1 47 4.7 NW 13 22 7 12 1028.9 1030.1 0.0
29/02:30pm 12.3 8.0 1.0 46 4.9 NNW 13 24 7 13 1029.2 1030.5 0.0
29/02:00pm 11.8 7.3 -0.4 43 5.1 NW 13 24 7 13 1029.5 1030.8 0.0
29/01:30pm 11.8 7.0 0.3 45 4.9 NW 15 24 8 13 1030.0 1031.3 0.0
29/01:00pm 11.7 6.9 0.2 45 4.9 NW 15 26 8 14 1030.7 1032.0 0.0
29/12:30pm 11.7 7.3 0.5 46 4.8 NW 13 20 7 11 1031.3 1032.6 0.0
29/12:00pm 11.5 7.7 2.0 52 4.2 NW 11 19 6 10 1031.7 1033.1 0.0
29/11:30am 11.1 8.6 3.9 61 3.3 N 6 13 3 7 1032.4 1033.7 0.0
29/11:00am 9.9 7.5 4.3 68 2.6 N 6 9 3 5 1033.0 1034.4 0.0
29/10:30am 8.1 6.2 5.0 81 1.4 N 4 9 2 5 1033.7 1035.0 0.0
29/10:00am 5.6 4.5 4.9 95 0.3 CALM 0 0 0 0 1034.0 1035.3 0.0
29/09:30am 3.2 1.6 2.5 95 0.3 CALM 0 0 0 0 1034.1 1035.4 0.0
29/09:00am 2.2 0.5 1.6 96 0.2 CALM 0 0 0 0 1034.1 1035.4 0.0
29/08:30am -0.4 -2.5 -1.0 96 0.2 CALM 0 0 0 0 1034.2 1035.5 0.0
29/08:00am -1.3 -3.5 -1.7 97 0.1 CALM 0 0 0 0 1034.2 1035.5 0.0
29/07:30am -3.6 -6.1 -4.0 97 0.0 CALM 0 0 0 0 1034.0 1035.3 0.0
29/07:00am -3.8 -6.3 -4.3 96 0.0 CALM 0 0 0 0 1033.7 1035.0 0.0
29/06:30am -3.8 -6.3 -4.3 96 0.0 CALM 0 0 0 0 1033.2 1034.6 0.0
29/06:00am -3.4 -5.9 -3.9 96 0.0 CALM 0 0 0 0 1032.9 1034.2 0.0
29/05:30am -1.8 -4.1 -2.2 97 0.1 CALM 0 0 0 0 1032.8 1034.1 0.0
29/05:00am -1.9 -4.2 -2.3 97 0.1 CALM 0 0 0 0 1032.7 1034.0 0.0
29/04:30am -2.0 -4.3 -2.4 97 0.0 CALM 0 0 0 0 1032.7 1034.0 0.0
29/04:00am -1.7 -4.0 -2.1 97 0.1 CALM 0 0 0 0 1032.6 1033.9 0.0
29/03:30am -1.9 -4.2 -2.5 96 0.1 CALM 0 0 0 0 1032.5 1033.8 0.0
29/03:00am -1.3 -3.9 -1.9 96 0.2 SSW 2 2 1 1 1032.4 1033.7 0.0
29/02:30am -0.8 -3.0 -1.4 96 0.2 CALM 0 0 0 0 1032.6 1033.9 0.0
29/02:00am -0.8 -3.4 -1.4 96 0.2 SSE 2 4 1 2 1032.9 1034.2 0.0
29/01:30am -0.6 -2.8 -1.4 94 0.3 CALM 0 6 0 3 1032.8 1034.1 0.0
29/01:00am 1.6 -1.0 1.0 96 0.2 SSW 4 7 2 4 1032.8 1034.1 0.0
29/12:30am 0.7 -1.3 0.0 95 0.3 CALM 0 0 0 0 1032.8 1034.1 0.0
29/12:00am 1.2 -0.8 0.0 92 0.5 CALM 0 0 0 0 1032.7 1034.0 0.0
 
Date/Time
EST
Tmp

°C
App
Tmp
°C
Dew
Point
°C
Rel
Hum
%
Delta-T

°C
Wind Press
QNH
hPa
Press
MSL
hPa
Rain
since
9 am
mm
Dir
 
Spd
km/h
Gust
km/h
Spd
kts
Gust
kts
28/11:30pm 1.9 0.0 0.7 92 0.5 CALM 0 0 0 0 1032.9 1034.2 0.0
28/11:00pm 2.4 0.6 0.9 90 0.6 CALM 0 0 0 0 1032.8 1034.1 0.0
28/10:30pm 3.4 1.7 1.8 89 0.7 CALM 0 0 0 0 1032.9 1034.2 0.0
28/10:00pm 3.7 2.0 1.9 88 0.7 CALM 0 2 0 1 1032.9 1034.2 0.0
28/09:30pm 4.4 2.9 3.1 91 0.6 CALM 0 0 0 0 1033.0 1034.4 0.0
28/09:00pm 4.0 2.4 2.5 90 0.6 CALM 0 0 0 0 1032.9 1034.2 0.0
28/08:30pm 3.6 1.9 1.8 88 0.7 CALM 0 0 0 0 1032.7 1034.0 0.0
28/08:00pm 4.5 2.9 2.7 88 0.8 CALM 0 0 0 0 1032.3 1033.6 0.0
28/07:30pm 4.6 2.9 2.0 83 1.1 CALM 0 0 0 0 1032.2 1033.5 0.0
28/07:00pm 4.6 2.9 1.6 81 1.2 CALM 0 0 0 0 1032.1 1033.4 0.0
28/06:30pm 5.9 4.3 2.4 78 1.5 CALM 0 0 0 0 1031.6 1032.9 0.0
28/06:00pm 6.3 4.5 1.4 71 2.0 CALM 0 0 0 0 1031.3 1032.6 0.0
28/05:30pm 7.6 5.8 1.2 64 2.7 CALM 0 0 0 0 1030.7 1032.0 0.0
28/05:00pm 10.0 8.2 1.4 55 3.7 CALM 0 0 0 0 1030.4 1031.6 0.0
28/04:30pm 10.5 8.8 1.9 55 3.8 CALM 0 2 0 1 1030.3 1031.5 0.0
28/04:00pm 10.6 7.4 0.9 51 4.1 SSE 7 11 4 6 1029.9 1031.2 0.0
28/03:30pm 11.3 8.0 0.4 47 4.7 SSE 7 11 4 6 1029.9 1031.2 0.0
28/03:00pm 11.7 8.0 -0.1 44 5.0 W 9 13 5 7 1029.9 1031.2 0.0
28/02:30pm 12.7 9.5 0.8 44 5.2 SW 7 13 4 7 1029.8 1031.1 0.0
28/02:00pm 12.5 8.7 -1.1 39 5.6 SW 9 15 5 8 1029.8 1031.1 0.0
28/01:30pm 12.0 8.1 -1.5 39 5.6 SW 9 19 5 10 1030.0 1031.3 0.0
28/01:00pm 12.2 8.1 -0.3 42 5.3 SSW 11 19 6 10 1030.1 1031.4 0.0
28/12:30pm 11.9 7.7 -0.6 42 5.3 WSW 11 19 6 10 1030.7 1032.0 0.0
28/12:00pm 11.1 6.5 -0.7 44 4.9 SSW 13 24 7 13 1031.0 1032.3 0.0
28/11:30am 11.0 6.5 -0.2 46 4.7 SSW 13 22 7 12 1031.3 1032.6 0.0
28/11:00am 10.4 5.6 0.2 49 4.3 SSW 15 26 8 14 1031.6 1032.9 0.0
28/10:30am 9.5 7.0 1.7 58 3.4 N 4 7 2 4 1031.7 1033.1 0.0
28/10:00am 8.3 5.5 2.1 65 2.7 N 6 9 3 5 1032.1 1033.4 0.0
28/09:30am 6.5 3.7 1.8 72 2.0 N 6 9 3 5 1032.1 1033.4 0.0
28/09:00am 4.9 1.9 0.5 73 1.8 NNW 6 9 3 5 1032.0 1033.3 0.0
28/08:30am 3.2 -0.5 -0.3 78 1.4 NW 9 15 5 8 1031.6 1032.9 0.0
28/08:00am 0.5 -2.9 -1.7 85 0.8 NNW 6 11 3 6 1031.4 1032.7 0.0
28/07:30am 0.6 -3.6 -1.2 88 0.7 WNW 11 17 6 9 1031.0 1032.3 0.0
28/07:00am 0.4 -4.2 -1.3 88 0.6 WNW 13 17 7 9 1030.6 1031.9 0.0
28/06:30am -0.3 -5.3 -1.4 92 0.4 WNW 15 17 8 9 1030.1 1031.4 0.0
28/06:00am -1.9 -5.6 -3.2 91 0.4 NNW 7 11 4 6 1029.7 1031.0 0.0
28/05:30am -0.6 -4.6 -1.9 91 0.4 NW 9 11 5 6 1029.6 1030.9 0.0
28/05:00am -1.6 -5.3 -2.7 92 0.3 NNW 7 11 4 6 1029.3 1030.6 0.0
28/04:30am 0.1 -3.7 -0.9 93 0.4 NW 9 13 5 7 1029.0 1030.2 0.0
28/04:00am -1.9 -5.4 -2.9 93 0.3 NNW 6 11 3 6 1029.1 1030.3 0.0
28/03:30am -0.8 -4.3 -1.6 94 0.2 NW 7 11 4 6 1028.8 1030.0 0.0
28/03:00am -0.5 -4.1 -1.8 91 0.4 NNW 7 13 4 7 1028.5 1029.8 0.0
28/02:30am -0.8 -4.2 -1.8 93 0.3 NW 6 7 3 4 1028.7 1029.9 0.0
28/02:00am -0.6 -3.9 -1.4 94 0.3 NW 6 11 3 6 1028.7 1029.9 0.0
28/01:30am -1.2 -3.9 -2.3 92 0.3 N 2 4 1 2 1028.7 1029.9 0.0
28/01:00am -1.3 -4.1 -3.0 88 0.5 N 2 6 1 3 1028.3 1029.6 0.0
28/12:30am -0.3 -3.8 -2.5 85 0.8 NNW 6 9 3 5 1028.1 1029.4 0.0
28/12:00am 1.8 -2.4 -0.9 82 1.0 NW 11 17 6 9 1028.3 1029.6 0.0
 
Date/Time
EST
Tmp

°C
App
Tmp
°C
Dew
Point
°C
Rel
Hum
%
Delta-T

°C
Wind Press
QNH
hPa
Press
MSL
hPa
Rain
since
9 am
mm
Dir
 
Spd
km/h
Gust
km/h
Spd
kts
Gust
kts
27/11:30pm 1.5 -2.3 -0.9 84 0.9 WNW 9 11 5 6 1028.4 1029.7 0.0
27/11:00pm 1.9 -1.9 -1.0 81 1.1 NW 9 17 5 9 1028.7 1029.9 0.0
27/10:30pm 2.6 -3.1 -0.7 79 1.3 NW 19 28 10 15 1028.4 1029.7 0.0
27/10:00pm 2.4 -2.7 -1.7 74 1.5 WNW 15 24 8 13 1028.4 1029.7 0.0
27/09:30pm 1.2 -2.4 -1.9 80 1.1 NW 7 13 4 7 1028.1 1029.4 0.0
27/09:00pm 0.9 -1.9 -3.2 74 1.5 NNE 2 6 1 3 1027.9 1029.2 0.0
27/08:30pm 3.2 -2.2 -1.3 72 1.7 WNW 17 28 9 15 1027.6 1028.8 0.0
27/08:00pm 3.6 -0.4 -2.3 65 2.2 WNW 9 19 5 10 1027.3 1028.5 0.0
27/07:30pm 4.6 -0.6 -2.5 60 2.6 W 15 20 8 11 1027.1 1028.3 0.0
27/07:00pm 4.1 0.4 -3.0 60 2.6 WSW 7 13 4 7 1026.5 1027.7 0.0
27/06:30pm 4.8 -0.7 -2.3 60 2.7 W 17 22 9 12 1025.9 1027.1 0.0
27/06:00pm 3.8 -0.3 -3.0 61 2.5 WNW 9 15 5 8 1025.2 1026.4 0.0
27/05:30pm 5.8 0.6 -2.8 54 3.2 WNW 15 19 8 10 1024.8 1026.0 0.0
27/05:00pm 6.9 2.7 -3.6 47 3.9 W 9 17 5 9 1024.5 1025.7 0.0
27/04:30pm 8.8 3.8 -4.0 40 4.8 WSW 13 19 7 10 1024.2 1025.4 0.0
27/04:00pm 9.8 5.4 -2.2 43 4.7 SW 11 20 6 11 1024.0 1025.1 0.0
27/03:30pm 8.2 3.9 -1.3 51 3.8 W 11 17 6 9 1023.9 1025.0 0.0
27/03:00pm 9.1 3.4 -0.8 50 4.0 WNW 19 26 10 14 1023.4 1024.6 0.0
27/02:30pm 9.3 4.4 -3.3 41 4.8 WSW 13 19 7 10 1023.3 1024.5 0.0
27/02:00pm 9.5 3.9 -3.1 41 4.9 WSW 17 28 9 15 1023.2 1024.4 0.0
27/01:30pm 9.2 3.9 -3.3 41 4.8 WNW 15 26 8 14 1023.0 1024.2 0.0
27/01:00pm 9.2 2.4 -2.1 45 4.4 WNW 24 33 13 18 1023.1 1024.3 0.0
27/12:30pm 8.5 2.4 -2.4 46 4.2 WNW 20 30 11 16 1023.3 1024.5 0.0
27/12:00pm 8.2 1.7 -2.7 46 4.2 WNW 22 30 12 16 1023.6 1024.8 0.0
27/11:30am 7.7 1.7 -1.8 51 3.7 WNW 20 33 11 18 1023.8 1024.9 0.0
27/11:00am 6.9 0.9 -3.3 48 3.8 WNW 19 26 10 14 1024.1 1025.3 0.0
27/10:30am 6.1 0.3 -1.8 57 3.0 NW 19 28 10 15 1024.0 1025.1 0.0
27/10:00am 4.8 -1.2 -1.8 62 2.5 NW 20 30 11 16 1023.8 1024.9 0.0
27/09:30am 4.2 -1.3 -1.8 65 2.3 NW 17 26 9 14 1023.8 1024.9 0.0
27/09:00am 3.3 -2.1 -1.6 70 1.8 NW 17 28 9 15 1023.4 1024.6 0.0
27/08:30am 2.3 -3.8 -2.4 71 1.7 NW 20 30 11 16 1022.8 1023.9 0.0
27/08:00am 1.1 -4.1 -2.5 77 1.3 NW 15 20 8 11 1022.7 1023.8 0.0
27/07:30am -0.8 -4.6 -3.6 81 0.9 NNW 7 11 4 6 1022.5 1023.6 0.0
27/07:00am 0.3 -5.0 -3.2 77 1.2 WNW 15 19 8 10 1021.8 1023.0 0.0
27/06:30am 0.4 -5.2 -3.0 78 1.2 WNW 17 24 9 13 1020.8 1021.9 0.0
27/06:00am -1.2 -4.1 -4.4 79 1.0 N 2 4 1 2 1020.4 1021.6 0.0
27/05:30am -0.3 -3.2 -4.0 76 1.2 NNE 2 7 1 4 1020.1 1021.2 0.0
27/05:00am 0.8 -3.7 -3.5 73 1.5 NW 11 19 6 10 1019.5 1020.6 0.0
27/04:30am 1.5 -2.4 -4.6 64 2.2 NNE 7 13 4 7 1019.5 1020.6 0.0
27/04:00am 2.9 -4.6 -4.3 59 2.5 WNW 26 41 14 22 1018.5 1019.6 0.0
27/03:30am 2.9 -2.5 -4.1 60 2.4 NW 15 32 8 17 1018.2 1019.3 0.0
27/03:00am 1.7 -2.5 -3.6 68 1.9 NNE 9 15 5 8 1018.3 1019.4 0.0
27/02:30am 1.8 -2.3 -3.1 70 1.7 NNW 9 19 5 10 1018.4 1019.5 0.0
27/02:00am 1.0 -2.7 -2.9 75 1.4 NNW 7 20 4 11 1018.5 1019.6 0.0
27/01:30am 0.9 -2.2 -2.8 76 1.4 NNW 4 6 2 3 1018.6 1019.7 0.0
27/01:00am 1.5 -1.9 -2.4 75 1.4 NNW 6 13 3 7 1018.5 1019.6 0.0
27/12:30am 1.5 -2.0 -3.0 72 1.7 NNE 6 11 3 6 1018.6 1019.7 0.0
27/12:00am 1.8 -2.3 -3.3 69 1.8 NNW 9 17 5 9 1018.3 1019.4 0.0
 
Date/Time
EST
Tmp

°C
App
Tmp
°C
Dew
Point
°C
Rel
Hum
%
Delta-T

°C
Wind Press
QNH
hPa
Press
MSL
hPa
Rain
since
9 am
mm
Dir
 
Spd
km/h
Gust
km/h
Spd
kts
Gust
kts
26/11:30pm 3.1 -1.4 -3.2 63 2.3 NW 11 24 6 13 1018.7 1019.8 0.0
26/11:00pm 2.4 -1.2 -3.9 63 2.2 NNE 6 15 3 8 1018.7 1019.8 0.0
26/10:30pm 3.6 -1.4 -4.1 57 2.7 NW 13 22 7 12 1018.5 1019.6 0.0
26/10:00pm 3.5 -1.5 -4.0 58 2.6 WNW 13 20 7 11 1018.6 1019.7 0.0

Latest Capital City Observations: Canberra | Sydney | Melbourne | Brisbane | Adelaide | Perth | Hobart | Darwin

Other Formats:

Comma delimited format used in spreadsheet applications
http://www.bom.gov.au/fwo/IDN60903/IDN60903.94927.axf

JavaScript Object Notation format (JSON) in row-major order
http://www.bom.gov.au/fwo/IDN60903/IDN60903.94927.json